LIMC Airport Information

Runway Information
Runway 17L Length 12861 ft width 197 ft
Elevation 745 ft Threshold 3094 ft Heading 170
Runway 35R Length 12861 ft Width 197 ft
Elevation 691 ft Threshold 0 ft Heading 350
Runway 17R Length 12861 ft width 197 ft
Elevation 764 ft Threshold 0 ft Heading 170
Runway 35L Length 12861 ft Width 197 ft
Elevation 696 ft Threshold 1329 ft Heading 350
Airport Frequencies
Type APP Name MILANO APP Frequency 132.7 MHZ
Type ATIS Name ATIS Frequency 120.025 MHZ
Type CLD Name CLNC DEL Frequency 120.9 MHZ
Type DEP Name MILANO DEP Frequency 126.75 MHZ
Type GND Name GND Frequency 121.9 MHZ
Type TWR Name TWR Frequency 119 MHZ
Airport Navaids
Type VOR-DME Name Malpensa Frequency 111200 KHZ
Type NDB Name Malpensa Frequency 364 KHZ
Airport Weather Information & NOTAM
ADDS - METARS form results

(2359 UTC 18 January 2018)
 
METAR text: LIMC 182350Z 01007KT CAVOK M00/M02 Q1010 NOSIG
Conditions at: LIMC (MILANO/MALPENSA , IT) observed 2350 UTC 18 January 2018
Temperature: 0.0°C (32°F)
Dewpoint: -2.0°C (28°F) [RH = 86%]
Pressure (altimeter): 29.82 inches Hg (1010.0 mb)
Winds: from the N (10 degrees) at 8 MPH (7 knots; 3.6 m/s)
Visibility: 6 or more miles (10+ km)
Ceiling: ceiling and visibility are OK
Clouds: unknown
Weather: no significant weather observed at this time

METAR text: LIMC 182320Z 02006KT CAVOK M00/M02 Q1010 NOSIG
Conditions at: LIMC (MILANO/MALPENSA , IT) observed 2320 UTC 18 January 2018
Temperature: 0.0°C (32°F)
Dewpoint: -2.0°C (28°F) [RH = 86%]
Pressure (altimeter): 29.82 inches Hg (1010.0 mb)
Winds: from the NNE (20 degrees) at 7 MPH (6 knots; 3.1 m/s)
Visibility: 6 or more miles (10+ km)
Ceiling: ceiling and visibility are OK
Clouds: unknown
Weather: no significant weather observed at this time